Terminal Aerodrome Forecast
Issued by NWS

Home | Current Version | Previous Version | Text Only | Print | Product List | Glossary On
Versions: 1 2 3 4 5 6 7 8 9 10 11 12 13 14 15 16 17 18 19
000
FTUS43 KUNR 162100 AAA
TAFGCC
TAF AMD
KGCC 162101Z 1621/1718 36011KT P6SM VCSH BKN035
     FM170300 VRB06KT P6SM BKN060
     FM171200 18010KT P6SM SCT070=

USA.gov is the U.S. government's official web portal to all federal, state and local government web resources and services.